sensor_id;sensor_type;location;lat;lon;timestamp;P1;durP1;ratioP1;P2;durP2;ratioP2
10481;SDS011;5288;42.334;23.876;2023-04-25T00:00:21;2.40;;;2.20;;
10481;SDS011;5288;42.334;23.876;2023-04-25T00:02:48;4.97;;;2.30;;
10481;SDS011;5288;42.334;23.876;2023-04-25T00:05:15;4.10;;;2.63;;
10481;SDS011;5288;42.334;23.876;2023-04-25T00:07:46;4.90;;;2.60;;
10481;SDS011;5288;42.334;23.876;2023-04-25T00:10:13;3.53;;;2.90;;
10481;SDS011;5288;42.334;23.876;2023-04-25T00:12:40;2.97;;;2.67;;
10481;SDS011;5288;42.334;23.876;2023-04-25T00:15:07;7.77;;;4.00;;
10481;SDS011;5288;42.334;23.876;2023-04-25T00:17:35;5.50;;;4.50;;
10481;SDS011;5288;42.334;23.876;2023-04-25T00:20:03;5.97;;;4.43;;
10481;SDS011;5288;42.334;23.876;2023-04-25T00:22:33;4.40;;;3.57;;
10481;SDS011;5288;42.334;23.876;2023-04-25T00:25:04;4.57;;;3.13;;
10481;SDS011;5288;42.334;23.876;2023-04-25T00:27:31;3.27;;;2.63;;
10481;SDS011;5288;42.334;23.876;2023-04-25T00:29:59;2.70;;;2.10;;
10481;SDS011;5288;42.334;23.876;2023-04-25T00:32:28;2.87;;;2.20;;
10481;SDS011;5288;42.334;23.876;2023-04-25T00:34:56;2.80;;;1.80;;
10481;SDS011;5288;42.334;23.876;2023-04-25T00:37:23;3.20;;;2.23;;
10481;SDS011;5288;42.334;23.876;2023-04-25T00:39:50;2.37;;;2.10;;
10481;SDS011;5288;42.334;23.876;2023-04-25T00:42:20;3.60;;;2.20;;
10481;SDS011;5288;42.334;23.876;2023-04-25T00:44:47;3.50;;;2.07;;
10481;SDS011;5288;42.334;23.876;2023-04-25T00:47:14;2.27;;;2.00;;
10481;SDS011;5288;42.334;23.876;2023-04-25T00:49:42;2.20;;;2.00;;
10481;SDS011;5288;42.334;23.876;2023-04-25T00:52:09;2.77;;;2.27;;
10481;SDS011;5288;42.334;23.876;2023-04-25T00:54:36;1.87;;;1.77;;
10481;SDS011;5288;42.334;23.876;2023-04-25T00:57:03;2.07;;;1.87;;
10481;SDS011;5288;42.334;23.876;2023-04-25T00:59:32;2.63;;;1.90;;
10481;SDS011;5288;42.334;23.876;2023-04-25T01:02:00;2.10;;;1.73;;
10481;SDS011;5288;42.334;23.876;2023-04-25T01:04:27;2.17;;;1.70;;
10481;SDS011;5288;42.334;23.876;2023-04-25T01:06:54;2.23;;;1.90;;
10481;SDS011;5288;42.334;23.876;2023-04-25T01:09:22;3.00;;;2.47;;
10481;SDS011;5288;42.334;23.876;2023-04-25T01:11:49;7.27;;;4.63;;
10481;SDS011;5288;42.334;23.876;2023-04-25T01:14:16;3.63;;;2.93;;
10481;SDS011;5288;42.334;23.876;2023-04-25T01:16:45;4.03;;;2.67;;
10481;SDS011;5288;42.334;23.876;2023-04-25T01:19:12;4.40;;;3.70;;
10481;SDS011;5288;42.334;23.876;2023-04-25T01:21:44;9.10;;;7.90;;
10481;SDS011;5288;42.334;23.876;2023-04-25T01:24:12;4.43;;;4.03;;
10481;SDS011;5288;42.334;23.876;2023-04-25T01:26:39;3.20;;;2.60;;
10481;SDS011;5288;42.334;23.876;2023-04-25T01:29:09;2.40;;;2.13;;
10481;SDS011;5288;42.334;23.876;2023-04-25T01:31:37;1.60;;;1.50;;
10481;SDS011;5288;42.334;23.876;2023-04-25T01:34:04;1.93;;;1.83;;
10481;SDS011;5288;42.334;23.876;2023-04-25T01:36:31;3.37;;;2.23;;
10481;SDS011;5288;42.334;23.876;2023-04-25T01:39:00;2.47;;;2.20;;
10481;SDS011;5288;42.334;23.876;2023-04-25T01:41:27;2.50;;;2.30;;
10481;SDS011;5288;42.334;23.876;2023-04-25T01:43:54;2.63;;;2.33;;
10481;SDS011;5288;42.334;23.876;2023-04-25T01:46:22;3.40;;;2.33;;
10481;SDS011;5288;42.334;23.876;2023-04-25T01:48:49;2.87;;;2.30;;
10481;SDS011;5288;42.334;23.876;2023-04-25T01:51:16;3.00;;;2.40;;
10481;SDS011;5288;42.334;23.876;2023-04-25T01:53:43;2.93;;;2.30;;
10481;SDS011;5288;42.334;23.876;2023-04-25T01:56:11;2.87;;;2.40;;
10481;SDS011;5288;42.334;23.876;2023-04-25T01:58:38;2.90;;;2.60;;
10481;SDS011;5288;42.334;23.876;2023-04-25T02:01:05;2.47;;;2.27;;
10481;SDS011;5288;42.334;23.876;2023-04-25T02:03:32;5.00;;;2.93;;
10481;SDS011;5288;42.334;23.876;2023-04-25T02:06:00;3.70;;;3.40;;
10481;SDS011;5288;42.334;23.876;2023-04-25T02:08:27;4.17;;;3.60;;
10481;SDS011;5288;42.334;23.876;2023-04-25T02:10:55;5.97;;;3.30;;
10481;SDS011;5288;42.334;23.876;2023-04-25T02:13:23;3.30;;;2.87;;
10481;SDS011;5288;42.334;23.876;2023-04-25T02:15:50;5.47;;;2.70;;
10481;SDS011;5288;42.334;23.876;2023-04-25T02:18:17;4.03;;;2.57;;
10481;SDS011;5288;42.334;23.876;2023-04-25T02:20:46;4.03;;;2.63;;
10481;SDS011;5288;42.334;23.876;2023-04-25T02:23:13;3.10;;;2.80;;
10481;SDS011;5288;42.334;23.876;2023-04-25T02:25:41;3.93;;;3.00;;
10481;SDS011;5288;42.334;23.876;2023-04-25T02:28:08;4.03;;;3.57;;
10481;SDS011;5288;42.334;23.876;2023-04-25T02:30:36;5.40;;;3.20;;
10481;SDS011;5288;42.334;23.876;2023-04-25T02:33:03;4.00;;;2.40;;
10481;SDS011;5288;42.334;23.876;2023-04-25T02:35:30;3.37;;;2.97;;
10481;SDS011;5288;42.334;23.876;2023-04-25T02:37:57;3.00;;;2.73;;
10481;SDS011;5288;42.334;23.876;2023-04-25T02:40:24;5.97;;;3.47;;
10481;SDS011;5288;42.334;23.876;2023-04-25T02:42:51;28.07;;;8.40;;
10481;SDS011;5288;42.334;23.876;2023-04-25T02:45:19;5.70;;;4.53;;
10481;SDS011;5288;42.334;23.876;2023-04-25T02:47:47;6.67;;;5.07;;
10481;SDS011;5288;42.334;23.876;2023-04-25T02:50:14;5.47;;;4.33;;
10481;SDS011;5288;42.334;23.876;2023-04-25T02:52:41;8.43;;;4.20;;
10481;SDS011;5288;42.334;23.876;2023-04-25T02:55:08;5.90;;;3.83;;
10481;SDS011;5288;42.334;23.876;2023-04-25T02:57:35;3.80;;;3.37;;
10481;SDS011;5288;42.334;23.876;2023-04-25T03:00:03;5.63;;;3.93;;
10481;SDS011;5288;42.334;23.876;2023-04-25T03:02:32;8.23;;;4.30;;
10481;SDS011;5288;42.334;23.876;2023-04-25T03:05:00;6.60;;;3.57;;
10481;SDS011;5288;42.334;23.876;2023-04-25T03:07:28;4.63;;;3.10;;
10481;SDS011;5288;42.334;23.876;2023-04-25T03:09:55;5.43;;;3.43;;
10481;SDS011;5288;42.334;23.876;2023-04-25T03:12:22;6.10;;;3.97;;
10481;SDS011;5288;42.334;23.876;2023-04-25T03:14:49;4.00;;;3.60;;
10481;SDS011;5288;42.334;23.876;2023-04-25T03:17:16;7.63;;;4.90;;
10481;SDS011;5288;42.334;23.876;2023-04-25T03:19:43;4.87;;;4.00;;
10481;SDS011;5288;42.334;23.876;2023-04-25T03:22:12;6.13;;;4.23;;
10481;SDS011;5288;42.334;23.876;2023-04-25T03:24:39;4.73;;;3.20;;
10481;SDS011;5288;42.334;23.876;2023-04-25T03:27:06;3.93;;;3.40;;
10481;SDS011;5288;42.334;23.876;2023-04-25T03:29:33;4.73;;;3.90;;
10481;SDS011;5288;42.334;23.876;2023-04-25T03:32:00;8.13;;;5.77;;
10481;SDS011;5288;42.334;23.876;2023-04-25T03:34:27;6.50;;;5.33;;
10481;SDS011;5288;42.334;23.876;2023-04-25T03:36:55;6.77;;;5.33;;
10481;SDS011;5288;42.334;23.876;2023-04-25T03:39:23;8.07;;;4.67;;
10481;SDS011;5288;42.334;23.876;2023-04-25T03:41:50;5.27;;;3.60;;
10481;SDS011;5288;42.334;23.876;2023-04-25T03:44:17;5.77;;;3.87;;
10481;SDS011;5288;42.334;23.876;2023-04-25T03:46:44;36.47;;;26.77;;
10481;SDS011;5288;42.334;23.876;2023-04-25T03:49:14;12.10;;;7.17;;
10481;SDS011;5288;42.334;23.876;2023-04-25T03:51:42;70.17;;;52.70;;
10481;SDS011;5288;42.334;23.876;2023-04-25T03:54:09;47.93;;;33.70;;
10481;SDS011;5288;42.334;23.876;2023-04-25T03:56:38;24.87;;;16.90;;
10481;SDS011;5288;42.334;23.876;2023-04-25T03:59:05;120.37;;;75.90;;
10481;SDS011;5288;42.334;23.876;2023-04-25T04:01:32;68.87;;;48.27;;
10481;SDS011;5288;42.334;23.876;2023-04-25T04:04:00;116.67;;;78.60;;
10481;SDS011;5288;42.334;23.876;2023-04-25T04:06:27;71.73;;;47.77;;
10481;SDS011;5288;42.334;23.876;2023-04-25T04:08:54;57.20;;;39.00;;
10481;SDS011;5288;42.334;23.876;2023-04-25T04:11:21;19.90;;;14.60;;
10481;SDS011;5288;42.334;23.876;2023-04-25T04:13:50;50.50;;;33.83;;
10481;SDS011;5288;42.334;23.876;2023-04-25T04:16:17;8.90;;;6.07;;
10481;SDS011;5288;42.334;23.876;2023-04-25T04:18:44;8.70;;;6.53;;
10481;SDS011;5288;42.334;23.876;2023-04-25T04:21:12;17.73;;;11.53;;
10481;SDS011;5288;42.334;23.876;2023-04-25T04:23:39;10.93;;;7.93;;
10481;SDS011;5288;42.334;23.876;2023-04-25T04:26:06;15.47;;;11.37;;
10481;SDS011;5288;42.334;23.876;2023-04-25T04:28:33;6.70;;;4.40;;
10481;SDS011;5288;42.334;23.876;2023-04-25T04:31:02;8.33;;;3.77;;
10481;SDS011;5288;42.334;23.876;2023-04-25T04:33:29;15.87;;;10.97;;
10481;SDS011;5288;42.334;23.876;2023-04-25T04:35:57;5.63;;;4.23;;
10481;SDS011;5288;42.334;23.876;2023-04-25T04:38:24;7.93;;;5.90;;
10481;SDS011;5288;42.334;23.876;2023-04-25T04:40:51;5.17;;;4.57;;
10481;SDS011;5288;42.334;23.876;2023-04-25T04:43:18;7.97;;;5.17;;
10481;SDS011;5288;42.334;23.876;2023-04-25T04:45:45;10.50;;;4.17;;
10481;SDS011;5288;42.334;23.876;2023-04-25T04:48:14;6.90;;;5.57;;
10481;SDS011;5288;42.334;23.876;2023-04-25T04:50:42;6.17;;;5.37;;
10481;SDS011;5288;42.334;23.876;2023-04-25T04:53:10;8.23;;;6.17;;
10481;SDS011;5288;42.334;23.876;2023-04-25T04:55:37;6.20;;;5.07;;
10481;SDS011;5288;42.334;23.876;2023-04-25T04:58:06;9.60;;;8.13;;
10481;SDS011;5288;42.334;23.876;2023-04-25T05:00:33;13.47;;;11.27;;
10481;SDS011;5288;42.334;23.876;2023-04-25T05:03:00;11.93;;;9.47;;
10481;SDS011;5288;42.334;23.876;2023-04-25T05:05:29;7.10;;;6.40;;
10481;SDS011;5288;42.334;23.876;2023-04-25T05:07:56;9.60;;;6.40;;
10481;SDS011;5288;42.334;23.876;2023-04-25T05:10:23;4.63;;;3.83;;
10481;SDS011;5288;42.334;23.876;2023-04-25T05:12:50;6.47;;;5.83;;
10481;SDS011;5288;42.334;23.876;2023-04-25T05:15:17;8.80;;;7.13;;
10481;SDS011;5288;42.334;23.876;2023-04-25T05:17:44;5.03;;;4.53;;
10481;SDS011;5288;42.334;23.876;2023-04-25T05:20:11;8.07;;;5.83;;
10481;SDS011;5288;42.334;23.876;2023-04-25T05:22:40;9.03;;;7.27;;
10481;SDS011;5288;42.334;23.876;2023-04-25T05:25:08;13.60;;;8.20;;
10481;SDS011;5288;42.334;23.876;2023-04-25T05:27:35;8.93;;;5.53;;
10481;SDS011;5288;42.334;23.876;2023-04-25T05:30:02;5.37;;;4.87;;
10481;SDS011;5288;42.334;23.876;2023-04-25T05:32:31;10.03;;;8.33;;
10481;SDS011;5288;42.334;23.876;2023-04-25T05:34:58;9.27;;;7.10;;
10481;SDS011;5288;42.334;23.876;2023-04-25T05:37:25;6.77;;;5.60;;
10481;SDS011;5288;42.334;23.876;2023-04-25T05:39:53;6.97;;;6.27;;
10481;SDS011;5288;42.334;23.876;2023-04-25T05:42:20;6.43;;;5.07;;
10481;SDS011;5288;42.334;23.876;2023-04-25T05:44:47;6.33;;;3.73;;
10481;SDS011;5288;42.334;23.876;2023-04-25T05:47:14;11.07;;;7.83;;
10481;SDS011;5288;42.334;23.876;2023-04-25T05:49:41;12.07;;;9.63;;
10481;SDS011;5288;42.334;23.876;2023-04-25T05:52:08;11.27;;;9.83;;
10481;SDS011;5288;42.334;23.876;2023-04-25T05:54:35;11.40;;;8.43;;
10481;SDS011;5288;42.334;23.876;2023-04-25T05:57:04;10.67;;;8.07;;
10481;SDS011;5288;42.334;23.876;2023-04-25T05:59:31;14.33;;;8.83;;
10481;SDS011;5288;42.334;23.876;2023-04-25T06:01:58;13.53;;;12.17;;
10481;SDS011;5288;42.334;23.876;2023-04-25T06:04:26;51.83;;;46.07;;
10481;SDS011;5288;42.334;23.876;2023-04-25T06:06:53;11.00;;;9.83;;
10481;SDS011;5288;42.334;23.876;2023-04-25T06:09:19;10.57;;;8.20;;
10481;SDS011;5288;42.334;23.876;2023-04-25T06:11:46;12.33;;;11.13;;
10481;SDS011;5288;42.334;23.876;2023-04-25T06:14:15;14.33;;;12.93;;
10481;SDS011;5288;42.334;23.876;2023-04-25T06:16:42;13.90;;;12.50;;
10481;SDS011;5288;42.334;23.876;2023-04-25T06:19:08;14.40;;;12.23;;
10481;SDS011;5288;42.334;23.876;2023-04-25T06:21:35;9.07;;;7.70;;
10481;SDS011;5288;42.334;23.876;2023-04-25T06:24:03;10.70;;;8.50;;
10481;SDS011;5288;42.334;23.876;2023-04-25T06:26:30;8.63;;;7.73;;
10481;SDS011;5288;42.334;23.876;2023-04-25T06:28:57;7.17;;;6.13;;
10481;SDS011;5288;42.334;23.876;2023-04-25T06:31:25;9.37;;;6.17;;
10481;SDS011;5288;42.334;23.876;2023-04-25T06:33:54;6.67;;;5.40;;
10481;SDS011;5288;42.334;23.876;2023-04-25T06:36:21;5.07;;;4.50;;
10481;SDS011;5288;42.334;23.876;2023-04-25T06:38:50;9.20;;;7.10;;
10481;SDS011;5288;42.334;23.876;2023-04-25T06:41:17;9.30;;;5.93;;
10481;SDS011;5288;42.334;23.876;2023-04-25T06:43:45;6.20;;;5.60;;
10481;SDS011;5288;42.334;23.876;2023-04-25T06:46:12;7.97;;;7.17;;
10481;SDS011;5288;42.334;23.876;2023-04-25T06:48:41;7.57;;;6.20;;
10481;SDS011;5288;42.334;23.876;2023-04-25T06:51:08;9.00;;;6.87;;
10481;SDS011;5288;42.334;23.876;2023-04-25T06:53:35;8.27;;;6.93;;
10481;SDS011;5288;42.334;23.876;2023-04-25T06:56:02;17.60;;;7.97;;
10481;SDS011;5288;42.334;23.876;2023-04-25T06:58:30;17.60;;;15.07;;
10481;SDS011;5288;42.334;23.876;2023-04-25T07:00:57;10.90;;;9.90;;
10481;SDS011;5288;42.334;23.876;2023-04-25T07:03:24;13.70;;;9.00;;
10481;SDS011;5288;42.334;23.876;2023-04-25T07:05:52;6.60;;;6.00;;
10481;SDS011;5288;42.334;23.876;2023-04-25T07:08:20;10.70;;;8.50;;
10481;SDS011;5288;42.334;23.876;2023-04-25T07:10:47;7.17;;;6.23;;
10481;SDS011;5288;42.334;23.876;2023-04-25T07:13:14;7.03;;;6.33;;
10481;SDS011;5288;42.334;23.876;2023-04-25T07:15:41;18.43;;;6.53;;
10481;SDS011;5288;42.334;23.876;2023-04-25T07:18:08;5.67;;;4.63;;
10481;SDS011;5288;42.334;23.876;2023-04-25T07:20:35;5.67;;;4.57;;
10481;SDS011;5288;42.334;23.876;2023-04-25T07:23:05;8.87;;;7.87;;
10481;SDS011;5288;42.334;23.876;2023-04-25T07:25:32;6.83;;;4.83;;
10481;SDS011;5288;42.334;23.876;2023-04-25T07:28:00;10.07;;;8.40;;
10481;SDS011;5288;42.334;23.876;2023-04-25T07:30:27;4.70;;;3.93;;
10481;SDS011;5288;42.334;23.876;2023-04-25T07:32:54;5.20;;;4.33;;
10481;SDS011;5288;42.334;23.876;2023-04-25T07:35:21;5.83;;;3.93;;
10481;SDS011;5288;42.334;23.876;2023-04-25T07:37:48;5.67;;;5.03;;
10481;SDS011;5288;42.334;23.876;2023-04-25T07:40:16;4.33;;;3.93;;
10481;SDS011;5288;42.334;23.876;2023-04-25T07:42:43;6.60;;;3.63;;
10481;SDS011;5288;42.334;23.876;2023-04-25T07:45:10;8.20;;;4.27;;
10481;SDS011;5288;42.334;23.876;2023-04-25T07:47:37;4.60;;;4.20;;
10481;SDS011;5288;42.334;23.876;2023-04-25T07:50:05;4.83;;;3.93;;
10481;SDS011;5288;42.334;23.876;2023-04-25T07:52:32;8.50;;;4.20;;
10481;SDS011;5288;42.334;23.876;2023-04-25T07:55:01;3.77;;;3.47;;
10481;SDS011;5288;42.334;23.876;2023-04-25T07:57:29;3.60;;;3.30;;
10481;SDS011;5288;42.334;23.876;2023-04-25T07:59:56;2.97;;;2.77;;
10481;SDS011;5288;42.334;23.876;2023-04-25T08:02:23;19.17;;;8.57;;
10481;SDS011;5288;42.334;23.876;2023-04-25T08:04:53;8.70;;;4.50;;
10481;SDS011;5288;42.334;23.876;2023-04-25T08:07:20;5.70;;;4.70;;
10481;SDS011;5288;42.334;23.876;2023-04-25T08:09:47;4.50;;;4.10;;
10481;SDS011;5288;42.334;23.876;2023-04-25T08:12:14;4.13;;;3.40;;
10481;SDS011;5288;42.334;23.876;2023-04-25T08:14:42;18.20;;;5.40;;
10481;SDS011;5288;42.334;23.876;2023-04-25T08:17:09;4.73;;;3.10;;
10481;SDS011;5288;42.334;23.876;2023-04-25T08:19:36;3.47;;;2.27;;
10481;SDS011;5288;42.334;23.876;2023-04-25T08:22:04;3.50;;;1.93;;
10481;SDS011;5288;42.334;23.876;2023-04-25T08:24:31;2.97;;;2.70;;
10481;SDS011;5288;42.334;23.876;2023-04-25T08:26:58;3.47;;;2.50;;
10481;SDS011;5288;42.334;23.876;2023-04-25T08:29:25;4.13;;;2.40;;
10481;SDS011;5288;42.334;23.876;2023-04-25T08:31:55;6.00;;;2.87;;
10481;SDS011;5288;42.334;23.876;2023-04-25T08:34:22;3.90;;;3.10;;
10481;SDS011;5288;42.334;23.876;2023-04-25T08:36:48;2.03;;;1.93;;
10481;SDS011;5288;42.334;23.876;2023-04-25T08:39:16;2.50;;;1.93;;
10481;SDS011;5288;42.334;23.876;2023-04-25T08:41:42;2.90;;;2.03;;
10481;SDS011;5288;42.334;23.876;2023-04-25T08:44:11;9.60;;;2.87;;
10481;SDS011;5288;42.334;23.876;2023-04-25T08:46:38;4.03;;;2.33;;
10481;SDS011;5288;42.334;23.876;2023-04-25T08:49:07;12.90;;;3.70;;
10481;SDS011;5288;42.334;23.876;2023-04-25T08:51:36;3.40;;;2.83;;
10481;SDS011;5288;42.334;23.876;2023-04-25T08:54:11;6.00;;;2.57;;
10481;SDS011;5288;42.334;23.876;2023-04-25T08:56:40;2.40;;;2.20;;
10481;SDS011;5288;42.334;23.876;2023-04-25T08:59:09;5.30;;;2.43;;
10481;SDS011;5288;42.334;23.876;2023-04-25T09:01:37;6.67;;;2.87;;
10481;SDS011;5288;42.334;23.876;2023-04-25T09:04:04;2.77;;;2.50;;
10481;SDS011;5288;42.334;23.876;2023-04-25T09:06:33;3.60;;;2.33;;
10481;SDS011;5288;42.334;23.876;2023-04-25T09:09:02;4.37;;;1.90;;
10481;SDS011;5288;42.334;23.876;2023-04-25T09:11:30;4.10;;;2.20;;
10481;SDS011;5288;42.334;23.876;2023-04-25T09:19:31;2.10;;;1.90;;
10481;SDS011;5288;42.334;23.876;2023-04-25T09:22:00;2.30;;;2.10;;
10481;SDS011;5288;42.334;23.876;2023-04-25T09:24:33;1.80;;;1.70;;
10481;SDS011;5288;42.334;23.876;2023-04-25T09:27:04;3.57;;;1.60;;
10481;SDS011;5288;42.334;23.876;2023-04-25T09:29:32;5.20;;;1.80;;
10481;SDS011;5288;42.334;23.876;2023-04-25T09:32:10;2.17;;;1.97;;
10481;SDS011;5288;42.334;23.876;2023-04-25T09:34:45;1.67;;;1.57;;
10481;SDS011;5288;42.334;23.876;2023-04-25T09:37:17;2.03;;;1.73;;
10481;SDS011;5288;42.334;23.876;2023-04-25T09:39:46;2.40;;;1.83;;
10481;SDS011;5288;42.334;23.876;2023-04-25T09:42:13;1.60;;;1.50;;
10481;SDS011;5288;42.334;23.876;2023-04-25T09:44:44;1.90;;;1.80;;
10481;SDS011;5288;42.334;23.876;2023-04-25T09:47:13;1.77;;;1.67;;
10481;SDS011;5288;42.334;23.876;2023-04-25T09:49:42;2.40;;;2.20;;
10481;SDS011;5288;42.334;23.876;2023-04-25T09:52:13;1.90;;;1.70;;
10481;SDS011;5288;42.334;23.876;2023-04-25T09:54:41;3.37;;;1.70;;
10481;SDS011;5288;42.334;23.876;2023-04-25T09:57:12;12.00;;;2.80;;
10481;SDS011;5288;42.334;23.876;2023-04-25T09:59:45;5.13;;;1.80;;
10481;SDS011;5288;42.334;23.876;2023-04-25T10:02:13;2.47;;;1.30;;
10481;SDS011;5288;42.334;23.876;2023-04-25T10:04:44;3.00;;;2.57;;
10481;SDS011;5288;42.334;23.876;2023-04-25T10:07:13;3.30;;;1.50;;
10481;SDS011;5288;42.334;23.876;2023-04-25T10:09:41;1.60;;;1.50;;
10481;SDS011;5288;42.334;23.876;2023-04-25T10:12:10;5.77;;;2.40;;
10481;SDS011;5288;42.334;23.876;2023-04-25T10:14:38;1.80;;;1.40;;
10481;SDS011;5288;42.334;23.876;2023-04-25T10:17:06;1.50;;;1.40;;
10481;SDS011;5288;42.334;23.876;2023-04-25T10:19:36;3.73;;;1.63;;
10481;SDS011;5288;42.334;23.876;2023-04-25T10:22:06;2.13;;;1.50;;
10481;SDS011;5288;42.334;23.876;2023-04-25T10:24:35;3.50;;;2.00;;
10481;SDS011;5288;42.334;23.876;2023-04-25T10:27:02;2.57;;;1.57;;
10481;SDS011;5288;42.334;23.876;2023-04-25T10:29:30;2.80;;;1.50;;
10481;SDS011;5288;42.334;23.876;2023-04-25T10:31:58;1.87;;;1.57;;
10481;SDS011;5288;42.334;23.876;2023-04-25T10:34:37;1.80;;;1.50;;
10481;SDS011;5288;42.334;23.876;2023-04-25T10:37:07;1.40;;;1.30;;
10481;SDS011;5288;42.334;23.876;2023-04-25T10:39:35;2.40;;;1.60;;
10481;SDS011;5288;42.334;23.876;2023-04-25T10:42:04;1.60;;;1.50;;
10481;SDS011;5288;42.334;23.876;2023-04-25T10:44:32;2.43;;;1.50;;
10481;SDS011;5288;42.334;23.876;2023-04-25T10:47:00;6.90;;;5.43;;
10481;SDS011;5288;42.334;23.876;2023-04-25T10:49:28;4.53;;;2.47;;
10481;SDS011;5288;42.334;23.876;2023-04-25T10:52:15;2.40;;;2.10;;
10481;SDS011;5288;42.334;23.876;2023-04-25T10:54:51;3.40;;;2.57;;
10481;SDS011;5288;42.334;23.876;2023-04-25T10:57:32;3.27;;;2.47;;
10481;SDS011;5288;42.334;23.876;2023-04-25T11:00:11;2.37;;;2.00;;
10481;SDS011;5288;42.334;23.876;2023-04-25T11:02:43;1.90;;;1.70;;
10481;SDS011;5288;42.334;23.876;2023-04-25T11:05:16;1.83;;;1.50;;
10481;SDS011;5288;42.334;23.876;2023-04-25T11:07:51;1.33;;;1.23;;
10481;SDS011;5288;42.334;23.876;2023-04-25T11:10:19;2.70;;;1.70;;
10481;SDS011;5288;42.334;23.876;2023-04-25T11:12:51;3.13;;;2.20;;
10481;SDS011;5288;42.334;23.876;2023-04-25T11:15:18;2.80;;;2.47;;
10481;SDS011;5288;42.334;23.876;2023-04-25T11:17:45;3.53;;;2.10;;
10481;SDS011;5288;42.334;23.876;2023-04-25T11:20:12;4.97;;;1.60;;
10481;SDS011;5288;42.334;23.876;2023-04-25T11:22:40;2.63;;;1.27;;
10481;SDS011;5288;42.334;23.876;2023-04-25T11:25:10;1.23;;;1.07;;
10481;SDS011;5288;42.334;23.876;2023-04-25T11:27:38;1.27;;;1.10;;
10481;SDS011;5288;42.334;23.876;2023-04-25T11:30:15;2.50;;;1.67;;
10481;SDS011;5288;42.334;23.876;2023-04-25T11:32:42;1.80;;;1.60;;
10481;SDS011;5288;42.334;23.876;2023-04-25T11:35:10;2.30;;;2.03;;
10481;SDS011;5288;42.334;23.876;2023-04-25T11:37:38;1.30;;;1.20;;
10481;SDS011;5288;42.334;23.876;2023-04-25T11:40:06;2.07;;;1.40;;
10481;SDS011;5288;42.334;23.876;2023-04-25T11:42:37;5.33;;;3.30;;
10481;SDS011;5288;42.334;23.876;2023-04-25T11:45:05;2.37;;;1.60;;
10481;SDS011;5288;42.334;23.876;2023-04-25T11:47:33;6.00;;;2.60;;
10481;SDS011;5288;42.334;23.876;2023-04-25T11:50:00;3.03;;;1.50;;
10481;SDS011;5288;42.334;23.876;2023-04-25T11:52:35;3.03;;;1.90;;
10481;SDS011;5288;42.334;23.876;2023-04-25T11:55:04;3.07;;;2.40;;
10481;SDS011;5288;42.334;23.876;2023-04-25T11:57:32;1.67;;;1.47;;
10481;SDS011;5288;42.334;23.876;2023-04-25T12:00:06;1.53;;;1.43;;
10481;SDS011;5288;42.334;23.876;2023-04-25T12:02:36;2.53;;;2.33;;
10481;SDS011;5288;42.334;23.876;2023-04-25T12:05:13;2.60;;;1.40;;
10481;SDS011;5288;42.334;23.876;2023-04-25T12:07:41;3.10;;;2.13;;
10481;SDS011;5288;42.334;23.876;2023-04-25T12:10:10;2.00;;;1.33;;
10481;SDS011;5288;42.334;23.876;2023-04-25T12:12:41;1.87;;;1.50;;
10481;SDS011;5288;42.334;23.876;2023-04-25T12:15:11;1.63;;;1.47;;
10481;SDS011;5288;42.334;23.876;2023-04-25T12:17:41;24.03;;;15.43;;
10481;SDS011;5288;42.334;23.876;2023-04-25T12:20:09;2.97;;;2.43;;
10481;SDS011;5288;42.334;23.876;2023-04-25T12:22:39;4.10;;;2.23;;
10481;SDS011;5288;42.334;23.876;2023-04-25T12:25:10;1.83;;;1.57;;
10481;SDS011;5288;42.334;23.876;2023-04-25T12:27:37;2.53;;;2.23;;
10481;SDS011;5288;42.334;23.876;2023-04-25T12:30:05;3.20;;;2.23;;
10481;SDS011;5288;42.334;23.876;2023-04-25T12:32:35;4.53;;;2.00;;
10481;SDS011;5288;42.334;23.876;2023-04-25T12:35:03;1.50;;;1.20;;
10481;SDS011;5288;42.334;23.876;2023-04-25T12:37:30;3.07;;;2.77;;
10481;SDS011;5288;42.334;23.876;2023-04-25T12:39:57;4.43;;;3.83;;
10481;SDS011;5288;42.334;23.876;2023-04-25T12:42:24;2.30;;;1.83;;
10481;SDS011;5288;42.334;23.876;2023-04-25T12:44:51;3.40;;;1.50;;
10481;SDS011;5288;42.334;23.876;2023-04-25T12:47:19;3.00;;;2.03;;
10481;SDS011;5288;42.334;23.876;2023-04-25T12:49:47;1.93;;;1.73;;
10481;SDS011;5288;42.334;23.876;2023-04-25T12:52:14;1.43;;;1.33;;
10481;SDS011;5288;42.334;23.876;2023-04-25T12:54:41;3.77;;;2.57;;
10481;SDS011;5288;42.334;23.876;2023-04-25T12:57:08;7.13;;;4.67;;
10481;SDS011;5288;42.334;23.876;2023-04-25T12:59:36;3.17;;;2.23;;
10481;SDS011;5288;42.334;23.876;2023-04-25T13:02:03;2.23;;;1.80;;
10481;SDS011;5288;42.334;23.876;2023-04-25T13:04:30;3.70;;;2.83;;
10481;SDS011;5288;42.334;23.876;2023-04-25T13:06:58;1.60;;;1.50;;
10481;SDS011;5288;42.334;23.876;2023-04-25T13:09:25;6.13;;;3.20;;
10481;SDS011;5288;42.334;23.876;2023-04-25T13:11:52;1.40;;;1.30;;
10481;SDS011;5288;42.334;23.876;2023-04-25T13:14:19;1.50;;;1.40;;
10481;SDS011;5288;42.334;23.876;2023-04-25T13:16:46;2.30;;;1.60;;
10481;SDS011;5288;42.334;23.876;2023-04-25T13:19:13;1.10;;;1.00;;
10481;SDS011;5288;42.334;23.876;2023-04-25T13:21:40;1.83;;;1.60;;
10481;SDS011;5288;42.334;23.876;2023-04-25T13:24:11;2.57;;;1.90;;
10481;SDS011;5288;42.334;23.876;2023-04-25T13:26:38;3.73;;;1.60;;
10481;SDS011;5288;42.334;23.876;2023-04-25T13:29:05;5.83;;;1.83;;
10481;SDS011;5288;42.334;23.876;2023-04-25T13:31:32;3.07;;;1.73;;
10481;SDS011;5288;42.334;23.876;2023-04-25T13:34:01;1.30;;;1.20;;
10481;SDS011;5288;42.334;23.876;2023-04-25T13:36:28;2.77;;;1.90;;
10481;SDS011;5288;42.334;23.876;2023-04-25T13:38:55;1.50;;;1.40;;
10481;SDS011;5288;42.334;23.876;2023-04-25T13:41:24;2.27;;;1.50;;
10481;SDS011;5288;42.334;23.876;2023-04-25T13:43:51;1.80;;;1.70;;
10481;SDS011;5288;42.334;23.876;2023-04-25T13:46:18;1.70;;;1.60;;
10481;SDS011;5288;42.334;23.876;2023-04-25T13:48:45;2.60;;;2.40;;
10481;SDS011;5288;42.334;23.876;2023-04-25T13:51:14;2.67;;;2.13;;
10481;SDS011;5288;42.334;23.876;2023-04-25T13:53:43;1.30;;;1.20;;
10481;SDS011;5288;42.334;23.876;2023-04-25T13:56:10;2.30;;;2.10;;
10481;SDS011;5288;42.334;23.876;2023-04-25T13:58:40;3.17;;;1.70;;
10481;SDS011;5288;42.334;23.876;2023-04-25T14:01:07;3.50;;;3.20;;
10481;SDS011;5288;42.334;23.876;2023-04-25T14:03:35;3.17;;;2.43;;
10481;SDS011;5288;42.334;23.876;2023-04-25T14:06:03;3.60;;;2.17;;
10481;SDS011;5288;42.334;23.876;2023-04-25T14:08:30;2.90;;;1.60;;
10481;SDS011;5288;42.334;23.876;2023-04-25T14:10:57;12.60;;;2.63;;
10481;SDS011;5288;42.334;23.876;2023-04-25T14:13:25;1.50;;;1.10;;
10481;SDS011;5288;42.334;23.876;2023-04-25T14:15:53;1.70;;;1.60;;
10481;SDS011;5288;42.334;23.876;2023-04-25T14:18:21;2.40;;;1.17;;
10481;SDS011;5288;42.334;23.876;2023-04-25T14:20:48;1.40;;;1.30;;
10481;SDS011;5288;42.334;23.876;2023-04-25T14:23:15;2.70;;;1.10;;
10481;SDS011;5288;42.334;23.876;2023-04-25T14:25:42;7.80;;;2.87;;
10481;SDS011;5288;42.334;23.876;2023-04-25T14:28:10;3.57;;;3.00;;
10481;SDS011;5288;42.334;23.876;2023-04-25T14:30:37;3.37;;;1.90;;
10481;SDS011;5288;42.334;23.876;2023-04-25T14:33:05;2.33;;;1.80;;
10481;SDS011;5288;42.334;23.876;2023-04-25T14:35:32;4.10;;;3.70;;
10481;SDS011;5288;42.334;23.876;2023-04-25T14:37:59;3.07;;;2.40;;
10481;SDS011;5288;42.334;23.876;2023-04-25T14:40:26;1.83;;;1.67;;
10481;SDS011;5288;42.334;23.876;2023-04-25T14:42:53;8.07;;;6.30;;
10481;SDS011;5288;42.334;23.876;2023-04-25T14:45:21;3.40;;;3.00;;
10481;SDS011;5288;42.334;23.876;2023-04-25T14:47:48;2.30;;;1.93;;
10481;SDS011;5288;42.334;23.876;2023-04-25T14:50:20;2.50;;;2.30;;
10481;SDS011;5288;42.334;23.876;2023-04-25T14:52:48;3.20;;;2.50;;
10481;SDS011;5288;42.334;23.876;2023-04-25T14:55:15;3.67;;;3.03;;